sensor_id;sensor_type;location;lat;lon;timestamp;pressure;altitude;pressure_sealevel;temperature;humidity
49813;BME280;35706;52.100;5.056;2023-06-14T00:00:41;101433.91;;;24.35;37.85
49813;BME280;35706;52.100;5.056;2023-06-14T00:01:43;101437.59;;;24.54;37.77
49813;BME280;35706;52.100;5.056;2023-06-14T00:02:45;101440.06;;;24.49;38.38
49813;BME280;35706;52.100;5.056;2023-06-14T00:03:45;101427.84;;;24.53;38.50
49813;BME280;35706;52.100;5.056;2023-06-14T00:04:47;101430.53;;;24.60;37.78
49813;BME280;35706;52.100;5.056;2023-06-14T00:05:48;101433.13;;;24.28;37.91
49813;BME280;35706;52.100;5.056;2023-06-14T00:06:48;101439.72;;;24.25;38.00
49813;BME280;35706;52.100;5.056;2023-06-14T00:07:50;101433.94;;;24.28;38.53
49813;BME280;35706;52.100;5.056;2023-06-14T00:08:53;101438.66;;;24.39;38.22
49813;BME280;35706;52.100;5.056;2023-06-14T00:09:54;101437.81;;;24.39;38.09
49813;BME280;35706;52.100;5.056;2023-06-14T00:10:54;101436.84;;;24.27;37.70
49813;BME280;35706;52.100;5.056;2023-06-14T00:11:55;101437.84;;;24.32;38.13
49813;BME280;35706;52.100;5.056;2023-06-14T00:12:55;101438.22;;;24.49;37.88
49813;BME280;35706;52.100;5.056;2023-06-14T00:13:55;101441.53;;;24.51;38.08
49813;BME280;35706;52.100;5.056;2023-06-14T00:14:56;101438.00;;;24.44;38.03
49813;BME280;35706;52.100;5.056;2023-06-14T00:15:57;101436.13;;;24.45;38.55
49813;BME280;35706;52.100;5.056;2023-06-14T00:16:57;101441.78;;;24.36;37.73
49813;BME280;35706;52.100;5.056;2023-06-14T00:17:58;101437.81;;;24.39;37.68
49813;BME280;35706;52.100;5.056;2023-06-14T00:19:02;101431.00;;;24.50;37.76
49813;BME280;35706;52.100;5.056;2023-06-14T00:20:05;101433.84;;;24.48;38.58
49813;BME280;35706;52.100;5.056;2023-06-14T00:21:06;101431.44;;;24.33;38.08
49813;BME280;35706;52.100;5.056;2023-06-14T00:22:07;101436.13;;;24.45;37.84
49813;BME280;35706;52.100;5.056;2023-06-14T00:23:07;101438.50;;;24.28;38.37
49813;BME280;35706;52.100;5.056;2023-06-14T00:24:07;101435.59;;;24.29;38.60
49813;BME280;35706;52.100;5.056;2023-06-14T00:25:08;101440.69;;;24.44;37.69
49813;BME280;35706;52.100;5.056;2023-06-14T00:26:08;101436.75;;;24.47;37.69
49813;BME280;35706;52.100;5.056;2023-06-14T00:27:08;101437.81;;;24.39;37.54
49813;BME280;35706;52.100;5.056;2023-06-14T00:28:09;101432.00;;;24.42;37.45
49813;BME280;35706;52.100;5.056;2023-06-14T00:29:09;101437.41;;;24.35;37.42
49813;BME280;35706;52.100;5.056;2023-06-14T00:30:10;101439.69;;;24.32;37.82
49813;BME280;35706;52.100;5.056;2023-06-14T00:31:10;101430.84;;;24.25;37.56
49813;BME280;35706;52.100;5.056;2023-06-14T00:32:11;101433.13;;;24.28;37.92
49813;BME280;35706;52.100;5.056;2023-06-14T00:33:11;101429.56;;;24.34;38.07
49813;BME280;35706;52.100;5.056;2023-06-14T00:34:12;101439.47;;;24.40;37.67
49813;BME280;35706;52.100;5.056;2023-06-14T00:35:12;101430.22;;;24.29;38.07
49813;BME280;35706;52.100;5.056;2023-06-14T00:36:12;101438.09;;;24.24;38.14
49813;BME280;35706;52.100;5.056;2023-06-14T00:37:13;101437.88;;;24.19;37.45
49813;BME280;35706;52.100;5.056;2023-06-14T00:38:13;101434.56;;;24.30;37.62
49813;BME280;35706;52.100;5.056;2023-06-14T00:39:13;101444.63;;;24.42;37.33
49813;BME280;35706;52.100;5.056;2023-06-14T00:40:14;101443.03;;;24.27;38.45
49813;BME280;35706;52.100;5.056;2023-06-14T00:41:14;101439.91;;;24.37;37.29
49813;BME280;35706;52.100;5.056;2023-06-14T00:42:27;101438.47;;;24.34;37.60
49813;BME280;35706;52.100;5.056;2023-06-14T00:43:28;101440.94;;;24.36;37.61
49813;BME280;35706;52.100;5.056;2023-06-14T00:44:28;101437.38;;;24.42;37.27
49813;BME280;35706;52.100;5.056;2023-06-14T00:45:28;101446.75;;;24.26;38.00
49813;BME280;35706;52.100;5.056;2023-06-14T00:46:29;101437.84;;;24.32;38.23
49813;BME280;35706;52.100;5.056;2023-06-14T00:47:29;101443.81;;;24.41;37.53
49813;BME280;35706;52.100;5.056;2023-06-14T00:48:30;101442.78;;;24.35;37.71
49813;BME280;35706;52.100;5.056;2023-06-14T00:49:31;101434.75;;;24.35;37.82
49813;BME280;35706;52.100;5.056;2023-06-14T00:50:32;101436.03;;;24.26;38.11
49813;BME280;35706;52.100;5.056;2023-06-14T00:51:33;101434.31;;;24.32;37.89
49813;BME280;35706;52.100;5.056;2023-06-14T00:52:34;101441.59;;;24.25;37.18
49813;BME280;35706;52.100;5.056;2023-06-14T00:53:34;101442.78;;;24.35;37.32
49813;BME280;35706;52.100;5.056;2023-06-14T00:54:35;101429.41;;;24.29;37.44
49813;BME280;35706;52.100;5.056;2023-06-14T00:55:36;101428.97;;;24.25;37.82
49813;BME280;35706;52.100;5.056;2023-06-14T00:56:36;101432.28;;;24.27;38.05
49813;BME280;35706;52.100;5.056;2023-06-14T00:57:37;101443.50;;;24.17;38.38
49813;BME280;35706;52.100;5.056;2023-06-14T00:58:37;101438.53;;;24.14;37.54
49813;BME280;35706;52.100;5.056;2023-06-14T00:59:46;101438.88;;;24.31;37.05
49813;BME280;35706;52.100;5.056;2023-06-14T01:00:47;101436.63;;;24.28;37.43
49813;BME280;35706;52.100;5.056;2023-06-14T01:01:47;101431.91;;;24.24;36.93
49813;BME280;35706;52.100;5.056;2023-06-14T01:02:48;101437.09;;;24.12;37.48
49813;BME280;35706;52.100;5.056;2023-06-14T01:03:50;101429.84;;;24.26;37.16
49813;BME280;35706;52.100;5.056;2023-06-14T01:04:52;101434.75;;;24.29;37.43
49813;BME280;35706;52.100;5.056;2023-06-14T01:06:05;101428.34;;;24.30;37.77
49813;BME280;35706;52.100;5.056;2023-06-14T01:08:25;101440.22;;;24.09;37.59
49813;BME280;35706;52.100;5.056;2023-06-14T01:09:37;101437.91;;;24.12;36.72
49813;BME280;35706;52.100;5.056;2023-06-14T01:10:56;101441.44;;;24.20;36.88
49813;BME280;35706;52.100;5.056;2023-06-14T01:12:08;101445.59;;;24.02;37.04
49813;BME280;35706;52.100;5.056;2023-06-14T01:14:20;101446.84;;;23.93;37.45
49813;BME280;35706;52.100;5.056;2023-06-14T01:15:21;101439.41;;;24.02;38.27
49813;BME280;35706;52.100;5.056;2023-06-14T01:16:22;101449.97;;;23.96;38.06
49813;BME280;35706;52.100;5.056;2023-06-14T01:17:23;101446.81;;;24.06;37.76
49813;BME280;35706;52.100;5.056;2023-06-14T01:18:24;101441.84;;;24.16;37.54
49813;BME280;35706;52.100;5.056;2023-06-14T01:19:26;101439.78;;;24.12;37.34
49813;BME280;35706;52.100;5.056;2023-06-14T01:20:30;101437.50;;;24.15;37.43
49813;BME280;35706;52.100;5.056;2023-06-14T01:21:31;101445.78;;;24.07;36.82
49813;BME280;35706;52.100;5.056;2023-06-14T01:22:34;101435.06;;;24.01;37.27
49813;BME280;35706;52.100;5.056;2023-06-14T01:23:34;101435.50;;;23.91;37.82
49813;BME280;35706;52.100;5.056;2023-06-14T01:24:34;101443.53;;;24.11;37.27
49813;BME280;35706;52.100;5.056;2023-06-14T01:25:35;101432.78;;;24.04;36.40
49813;BME280;35706;52.100;5.056;2023-06-14T01:26:38;101433.81;;;24.10;36.50
49813;BME280;35706;52.100;5.056;2023-06-14T01:27:39;101436.47;;;24.10;37.04
49813;BME280;35706;52.100;5.056;2023-06-14T01:28:39;101436.50;;;24.03;37.25
49813;BME280;35706;52.100;5.056;2023-06-14T01:29:40;101432.19;;;23.95;37.58
49813;BME280;35706;52.100;5.056;2023-06-14T01:30:53;101440.66;;;23.92;37.38
49813;BME280;35706;52.100;5.056;2023-06-14T01:31:55;101440.00;;;24.10;37.25
49813;BME280;35706;52.100;5.056;2023-06-14T01:32:56;101435.28;;;23.99;36.98
49813;BME280;35706;52.100;5.056;2023-06-14T01:33:57;101442.97;;;23.82;36.93
49813;BME280;35706;52.100;5.056;2023-06-14T01:34:57;101442.97;;;23.69;37.29
49813;BME280;35706;52.100;5.056;2023-06-14T01:35:57;101443.16;;;23.67;37.73
49813;BME280;35706;52.100;5.056;2023-06-14T01:37:00;101441.94;;;23.56;38.15
49813;BME280;35706;52.100;5.056;2023-06-14T01:38:02;101445.22;;;23.72;37.50
49813;BME280;35706;52.100;5.056;2023-06-14T01:39:03;101445.44;;;23.64;37.92
49813;BME280;35706;52.100;5.056;2023-06-14T01:40:07;101437.97;;;23.72;37.36
49813;BME280;35706;52.100;5.056;2023-06-14T01:41:09;101444.81;;;23.82;37.03
49813;BME280;35706;52.100;5.056;2023-06-14T01:42:10;101442.34;;;23.60;37.20
49813;BME280;35706;52.100;5.056;2023-06-14T01:43:16;101436.34;;;23.65;37.57
49813;BME280;35706;52.100;5.056;2023-06-14T01:44:17;101438.63;;;23.61;37.68
49813;BME280;35706;52.100;5.056;2023-06-14T01:45:19;101434.06;;;23.75;37.37
49813;BME280;35706;52.100;5.056;2023-06-14T01:46:20;101444.59;;;23.70;38.02
49813;BME280;35706;52.100;5.056;2023-06-14T01:47:21;101440.88;;;23.71;38.10
49813;BME280;35706;52.100;5.056;2023-06-14T01:48:21;101437.16;;;23.72;37.38
49813;BME280;35706;52.100;5.056;2023-06-14T01:49:21;101440.88;;;23.84;37.26
49813;BME280;35706;52.100;5.056;2023-06-14T01:50:22;101439.84;;;23.78;36.99
49813;BME280;35706;52.100;5.056;2023-06-14T01:51:22;101438.59;;;23.81;37.61
49813;BME280;35706;52.100;5.056;2023-06-14T01:52:22;101436.97;;;23.80;37.69
49813;BME280;35706;52.100;5.056;2023-06-14T01:53:24;101441.28;;;23.81;37.47
49813;BME280;35706;52.100;5.056;2023-06-14T01:54:24;101441.13;;;23.56;37.52
49813;BME280;35706;52.100;5.056;2023-06-14T01:55:26;101438.19;;;23.64;37.71
49813;BME280;35706;52.100;5.056;2023-06-14T01:56:26;101439.25;;;23.63;37.27
49813;BME280;35706;52.100;5.056;2023-06-14T01:57:27;101447.50;;;23.48;37.04
49813;BME280;35706;52.100;5.056;2023-06-14T01:58:28;101438.81;;;23.60;37.41
49813;BME280;35706;52.100;5.056;2023-06-14T01:59:28;101434.72;;;23.44;37.51
49813;BME280;35706;52.100;5.056;2023-06-14T02:00:29;101439.03;;;23.38;37.54
49813;BME280;35706;52.100;5.056;2023-06-14T02:01:29;101436.16;;;23.46;37.94
49813;BME280;35706;52.100;5.056;2023-06-14T02:02:30;101427.28;;;23.46;37.25
49813;BME280;35706;52.100;5.056;2023-06-14T02:03:31;101440.47;;;23.41;37.77
49813;BME280;35706;52.100;5.056;2023-06-14T02:04:31;101436.56;;;23.50;37.80
49813;BME280;35706;52.100;5.056;2023-06-14T02:05:31;101430.16;;;23.44;37.07
49813;BME280;35706;52.100;5.056;2023-06-14T02:06:32;101433.50;;;23.26;37.38
49813;BME280;35706;52.100;5.056;2023-06-14T02:07:33;101426.88;;;23.22;37.25
49813;BME280;35706;52.100;5.056;2023-06-14T02:08:33;101428.31;;;23.25;37.95
49813;BME280;35706;52.100;5.056;2023-06-14T02:09:34;101432.03;;;23.30;37.57
49813;BME280;35706;52.100;5.056;2023-06-14T02:10:35;101425.84;;;23.56;36.91
49813;BME280;35706;52.100;5.056;2023-06-14T02:11:35;101429.53;;;23.55;37.79
49813;BME280;35706;52.100;5.056;2023-06-14T02:12:35;101431.41;;;23.48;37.87
49813;BME280;35706;52.100;5.056;2023-06-14T02:13:35;101429.53;;;23.49;37.13
49813;BME280;35706;52.100;5.056;2023-06-14T02:14:36;101436.38;;;23.31;37.34
49813;BME280;35706;52.100;5.056;2023-06-14T02:15:36;101430.78;;;23.46;37.36
49813;BME280;35706;52.100;5.056;2023-06-14T02:16:37;101428.72;;;23.55;37.48
49813;BME280;35706;52.100;5.056;2023-06-14T02:17:38;101429.13;;;23.58;37.39
49813;BME280;35706;52.100;5.056;2023-06-14T02:18:39;101428.50;;;23.63;37.00
49813;BME280;35706;52.100;5.056;2023-06-14T02:19:39;101432.00;;;23.64;36.56
49813;BME280;35706;52.100;5.056;2023-06-14T02:20:40;101431.59;;;23.47;36.21
49813;BME280;35706;52.100;5.056;2023-06-14T02:21:40;101428.53;;;23.43;36.58
49813;BME280;35706;52.100;5.056;2023-06-14T02:22:41;101432.44;;;23.47;37.27
49813;BME280;35706;52.100;5.056;2023-06-14T02:23:41;101428.53;;;23.50;36.95
49813;BME280;35706;52.100;5.056;2023-06-14T02:24:42;101429.34;;;23.44;36.75
49813;BME280;35706;52.100;5.056;2023-06-14T02:25:42;101430.59;;;23.41;37.69
49813;BME280;35706;52.100;5.056;2023-06-14T02:26:44;101432.25;;;23.22;36.88
49813;BME280;35706;52.100;5.056;2023-06-14T02:27:45;101432.88;;;23.31;38.09
49813;BME280;35706;52.100;5.056;2023-06-14T02:28:45;101430.38;;;23.36;37.84
49813;BME280;35706;52.100;5.056;2023-06-14T02:29:45;101424.81;;;23.44;37.54
49813;BME280;35706;52.100;5.056;2023-06-14T02:30:46;101429.75;;;23.34;37.68
49813;BME280;35706;52.100;5.056;2023-06-14T02:31:46;101429.56;;;23.35;37.59
49813;BME280;35706;52.100;5.056;2023-06-14T02:32:48;101432.25;;;23.42;37.44
49813;BME280;35706;52.100;5.056;2023-06-14T02:33:51;101429.34;;;23.50;36.83
49813;BME280;35706;52.100;5.056;2023-06-14T02:34:51;101433.47;;;23.53;37.06
49813;BME280;35706;52.100;5.056;2023-06-14T02:35:52;101435.31;;;23.52;36.39
49813;BME280;35706;52.100;5.056;2023-06-14T02:36:52;101440.28;;;23.42;36.89
49813;BME280;35706;52.100;5.056;2023-06-14T02:37:53;101431.22;;;23.43;36.57
49813;BME280;35706;52.100;5.056;2023-06-14T02:38:53;101435.31;;;23.52;36.57
49813;BME280;35706;52.100;5.056;2023-06-14T02:39:54;101443.38;;;23.26;36.56
49813;BME280;35706;52.100;5.056;2023-06-14T02:40:55;101444.41;;;23.31;36.86
49813;BME280;35706;52.100;5.056;2023-06-14T02:41:55;101439.88;;;23.19;36.99
49813;BME280;35706;52.100;5.056;2023-06-14T02:42:55;101443.78;;;23.09;37.94
49813;BME280;35706;52.100;5.056;2023-06-14T02:43:56;101444.59;;;23.10;37.49
49813;BME280;35706;52.100;5.056;2023-06-14T02:44:58;101441.09;;;23.09;37.20
49813;BME280;35706;52.100;5.056;2023-06-14T02:45:59;101444.81;;;23.08;37.77
49813;BME280;35706;52.100;5.056;2023-06-14T02:46:59;101441.50;;;23.13;37.48
49813;BME280;35706;52.100;5.056;2023-06-14T02:48:00;101441.31;;;23.21;37.32
49813;BME280;35706;52.100;5.056;2023-06-14T02:49:01;101443.59;;;23.24;37.58
49813;BME280;35706;52.100;5.056;2023-06-14T02:50:02;101442.34;;;23.20;37.71
49813;BME280;35706;52.100;5.056;2023-06-14T02:51:02;101439.88;;;23.32;37.44
49813;BME280;35706;52.100;5.056;2023-06-14T02:52:03;101442.75;;;23.17;37.40
49813;BME280;35706;52.100;5.056;2023-06-14T02:53:03;101444.00;;;23.28;37.32
49813;BME280;35706;52.100;5.056;2023-06-14T02:54:03;101448.09;;;23.17;37.22
49813;BME280;35706;52.100;5.056;2023-06-14T02:55:04;101441.69;;;23.05;37.19
49813;BME280;35706;52.100;5.056;2023-06-14T02:56:04;101442.31;;;23.13;37.91
49813;BME280;35706;52.100;5.056;2023-06-14T02:57:05;101439.88;;;23.19;37.13
49813;BME280;35706;52.100;5.056;2023-06-14T02:58:07;101440.44;;;23.01;37.78
49813;BME280;35706;52.100;5.056;2023-06-14T02:59:07;101444.19;;;23.20;37.13
49813;BME280;35706;52.100;5.056;2023-06-14T03:00:09;101446.47;;;23.09;36.88
49813;BME280;35706;52.100;5.056;2023-06-14T03:01:10;101444.16;;;23.00;37.56
49813;BME280;35706;52.100;5.056;2023-06-14T03:02:12;101454.69;;;23.01;37.94
49813;BME280;35706;52.100;5.056;2023-06-14T03:03:13;101442.31;;;23.13;37.84
49813;BME280;35706;52.100;5.056;2023-06-14T03:04:16;101445.59;;;22.95;37.67
49813;BME280;35706;52.100;5.056;2023-06-14T03:05:16;101451.84;;;23.23;37.68
49813;BME280;35706;52.100;5.056;2023-06-14T03:06:21;101445.16;;;22.98;37.43
49813;BME280;35706;52.100;5.056;2023-06-14T03:07:24;101448.88;;;22.91;37.64
49813;BME280;35706;52.100;5.056;2023-06-14T03:08:25;101453.19;;;22.98;38.07
49813;BME280;35706;52.100;5.056;2023-06-14T03:09:27;101455.72;;;23.07;37.83
49813;BME280;35706;52.100;5.056;2023-06-14T03:10:28;101448.06;;;22.97;37.27
49813;BME280;35706;52.100;5.056;2023-06-14T03:11:29;101458.03;;;23.16;37.81
49813;BME280;35706;52.100;5.056;2023-06-14T03:12:29;101457.38;;;23.01;37.57
49813;BME280;35706;52.100;5.056;2023-06-14T03:13:29;101456.09;;;22.90;37.99
49813;BME280;35706;52.100;5.056;2023-06-14T03:14:32;101461.03;;;22.87;37.68
49813;BME280;35706;52.100;5.056;2023-06-14T03:15:32;101454.44;;;22.96;37.56
49813;BME280;35706;52.100;5.056;2023-06-14T03:16:34;101464.19;;;23.04;37.78
49813;BME280;35706;52.100;5.056;2023-06-14T03:17:35;101457.13;;;22.96;37.94
49813;BME280;35706;52.100;5.056;2023-06-14T03:18:38;101468.94;;;23.08;38.01
49813;BME280;35706;52.100;5.056;2023-06-14T03:19:38;101453.13;;;22.65;37.86
49813;BME280;35706;52.100;5.056;2023-06-14T03:20:41;101458.97;;;22.89;38.10
49813;BME280;35706;52.100;5.056;2023-06-14T03:21:42;101462.09;;;22.99;37.93
49813;BME280;35706;52.100;5.056;2023-06-14T03:22:44;101463.72;;;22.93;38.27
49813;BME280;35706;52.100;5.056;2023-06-14T03:23:46;101471.97;;;22.92;37.97
49813;BME280;35706;52.100;5.056;2023-06-14T03:24:47;101467.16;;;22.67;38.20
49813;BME280;35706;52.100;5.056;2023-06-14T03:25:48;101469.44;;;22.70;38.34
49813;BME280;35706;52.100;5.056;2023-06-14T03:26:48;101472.75;;;22.79;38.41
49813;BME280;35706;52.100;5.056;2023-06-14T03:27:48;101466.13;;;22.75;37.67
49813;BME280;35706;52.100;5.056;2023-06-14T03:28:48;101465.75;;;22.78;38.24
49813;BME280;35706;52.100;5.056;2023-06-14T03:29:50;101473.31;;;22.61;37.84
49813;BME280;35706;52.100;5.056;2023-06-14T03:30:50;101469.25;;;22.79;37.56
49813;BME280;35706;52.100;5.056;2023-06-14T03:31:59;101480.94;;;22.58;38.12
49813;BME280;35706;52.100;5.056;2023-06-14T03:32:59;101476.66;;;22.70;38.17
49813;BME280;35706;52.100;5.056;2023-06-14T03:34:02;101472.50;;;22.61;38.18
49813;BME280;35706;52.100;5.056;2023-06-14T03:35:03;101473.31;;;22.54;38.44
49813;BME280;35706;52.100;5.056;2023-06-14T03:36:04;101474.34;;;22.60;38.62
49813;BME280;35706;52.100;5.056;2023-06-14T03:37:05;101485.13;;;22.80;38.20
49813;BME280;35706;52.100;5.056;2023-06-14T03:38:05;101475.22;;;22.74;38.25
49813;BME280;35706;52.100;5.056;2023-06-14T03:39:05;101477.09;;;22.73;38.38
49813;BME280;35706;52.100;5.056;2023-06-14T03:40:06;101485.13;;;22.73;38.23
49813;BME280;35706;52.100;5.056;2023-06-14T03:41:07;101477.91;;;22.81;38.47
49813;BME280;35706;52.100;5.056;2023-06-14T03:42:07;101481.41;;;22.81;38.53
49813;BME280;35706;52.100;5.056;2023-06-14T03:43:07;101482.00;;;22.70;38.80
49813;BME280;35706;52.100;5.056;2023-06-14T03:44:08;101483.25;;;22.67;38.44
49813;BME280;35706;52.100;5.056;2023-06-14T03:45:08;101481.81;;;22.71;38.59
49813;BME280;35706;52.100;5.056;2023-06-14T03:46:08;101488.84;;;22.79;38.70
49813;BME280;35706;52.100;5.056;2023-06-14T03:47:09;101490.84;;;22.64;38.34
49813;BME280;35706;52.100;5.056;2023-06-14T03:48:09;101491.28;;;22.67;38.81
49813;BME280;35706;52.100;5.056;2023-06-14T03:49:09;101489.88;;;22.78;38.38
49813;BME280;35706;52.100;5.056;2023-06-14T03:50:10;101488.19;;;22.70;38.59
49813;BME280;35706;52.100;5.056;2023-06-14T03:51:11;101489.44;;;22.74;38.68
49813;BME280;35706;52.100;5.056;2023-06-14T03:52:12;101490.25;;;22.68;38.29
49813;BME280;35706;52.100;5.056;2023-06-14T03:53:14;101492.47;;;22.58;38.39
49813;BME280;35706;52.100;5.056;2023-06-14T03:54:14;101491.66;;;22.64;38.77
49813;BME280;35706;52.100;5.056;2023-06-14T03:55:15;101492.25;;;22.53;39.02
49813;BME280;35706;52.100;5.056;2023-06-14T03:56:16;101492.09;;;22.61;38.80
49813;BME280;35706;52.100;5.056;2023-06-14T03:57:16;101493.34;;;22.72;38.64
49813;BME280;35706;52.100;5.056;2023-06-14T03:58:17;101497.41;;;22.54;38.52
49813;BME280;35706;52.100;5.056;2023-06-14T03:59:17;101498.09;;;22.70;38.93
49813;BME280;35706;52.100;5.056;2023-06-14T04:00:18;101495.44;;;22.76;38.78
49813;BME280;35706;52.100;5.056;2023-06-14T04:01:18;101501.66;;;22.90;38.26
49813;BME280;35706;52.100;5.056;2023-06-14T04:02:18;101489.44;;;22.74;38.59
49813;BME280;35706;52.100;5.056;2023-06-14T04:03:19;101496.19;;;22.57;38.42
49813;BME280;35706;52.100;5.056;2023-06-14T04:04:25;101491.44;;;22.59;39.41
49813;BME280;35706;52.100;5.056;2023-06-14T04:05:28;101503.25;;;22.71;38.58
49813;BME280;35706;52.100;5.056;2023-06-14T04:06:29;101501.81;;;22.75;38.54
49813;BME280;35706;52.100;5.056;2023-06-14T04:07:32;101498.22;;;22.55;38.82
49813;BME280;35706;52.100;5.056;2023-06-14T04:08:39;101509.06;;;22.33;39.49
49813;BME280;35706;52.100;5.056;2023-06-14T04:09:41;101503.19;;;22.58;38.82
49813;BME280;35706;52.100;5.056;2023-06-14T04:10:42;101498.41;;;22.47;38.92
49813;BME280;35706;52.100;5.056;2023-06-14T04:11:42;101505.72;;;22.25;39.38
49813;BME280;35706;52.100;5.056;2023-06-14T04:12:42;101504.75;;;22.11;39.87
49813;BME280;35706;52.100;5.056;2023-06-14T04:13:44;101508.06;;;22.13;39.62
49813;BME280;35706;52.100;5.056;2023-06-14T04:14:44;101509.34;;;21.89;39.76
49813;BME280;35706;52.100;5.056;2023-06-14T04:15:44;101508.31;;;21.62;40.64
49813;BME280;35706;52.100;5.056;2023-06-14T04:16:46;101507.34;;;21.69;40.59
49813;BME280;35706;52.100;5.056;2023-06-14T04:17:47;101510.25;;;21.46;40.94
49813;BME280;35706;52.100;5.056;2023-06-14T04:18:47;101510.03;;;21.48;41.16
49813;BME280;35706;52.100;5.056;2023-06-14T04:19:51;101512.53;;;21.49;41.22
49813;BME280;35706;52.100;5.056;2023-06-14T04:20:51;101515.66;;;21.53;41.19
49813;BME280;35706;52.100;5.056;2023-06-14T04:21:53;101516.28;;;21.55;40.69
49813;BME280;35706;52.100;5.056;2023-06-14T04:22:56;101511.44;;;21.44;40.91
49813;BME280;35706;52.100;5.056;2023-06-14T04:23:57;101516.25;;;21.48;40.81
49813;BME280;35706;52.100;5.056;2023-06-14T04:24:57;101509.91;;;21.56;40.97
49813;BME280;35706;52.100;5.056;2023-06-14T04:25:57;101520.34;;;21.29;41.94
49813;BME280;35706;52.100;5.056;2023-06-14T04:27:02;101516.25;;;21.33;41.88
49813;BME280;35706;52.100;5.056;2023-06-14T04:28:03;101512.56;;;21.34;41.91
49813;BME280;35706;52.100;5.056;2023-06-14T04:29:03;101516.44;;;21.32;41.89
49813;BME280;35706;52.100;5.056;2023-06-14T04:30:04;101517.47;;;21.31;41.65
49813;BME280;35706;52.100;5.056;2023-06-14T04:31:05;101515.34;;;21.26;41.46
49813;BME280;35706;52.100;5.056;2023-06-14T04:32:05;101517.22;;;21.26;41.66
49813;BME280;35706;52.100;5.056;2023-06-14T04:33:07;101519.94;;;21.32;41.85
49813;BME280;35706;52.100;5.056;2023-06-14T04:34:08;101520.88;;;21.25;41.76
49813;BME280;35706;52.100;5.056;2023-06-14T04:35:08;101528.63;;;20.98;42.27
49813;BME280;35706;52.100;5.056;2023-06-14T04:36:12;101526.06;;;20.90;42.77
49813;BME280;35706;52.100;5.056;2023-06-14T04:37:13;101519.44;;;20.86;43.08
49813;BME280;35706;52.100;5.056;2023-06-14T04:38:13;101525.78;;;21.00;42.53
49813;BME280;35706;52.100;5.056;2023-06-14T04:39:16;101521.56;;;20.90;42.68
49813;BME280;35706;52.100;5.056;2023-06-14T04:40:19;101524.28;;;20.97;42.50
49813;BME280;35706;52.100;5.056;2023-06-14T04:41:22;101527.31;;;20.72;43.04
49813;BME280;35706;52.100;5.056;2023-06-14T04:42:28;101531.03;;;20.93;42.99
49813;BME280;35706;52.100;5.056;2023-06-14T04:43:31;101527.44;;;21.01;42.90
49813;BME280;35706;52.100;5.056;2023-06-14T04:44:38;101525.41;;;21.03;42.80
49813;BME280;35706;52.100;5.056;2023-06-14T04:45:39;101524.25;;;21.12;42.50
49813;BME280;35706;52.100;5.056;2023-06-14T04:46:41;101519.75;;;21.12;42.46
49813;BME280;35706;52.100;5.056;2023-06-14T04:47:46;101531.19;;;21.06;42.68
49813;BME280;35706;52.100;5.056;2023-06-14T04:48:46;101533.31;;;21.11;42.50
49813;BME280;35706;52.100;5.056;2023-06-14T04:49:47;101530.06;;;21.15;42.58
49813;BME280;35706;52.100;5.056;2023-06-14T04:50:48;101529.59;;;21.12;42.74
49813;BME280;35706;52.100;5.056;2023-06-14T04:51:53;101530.06;;;21.15;42.61
49813;BME280;35706;52.100;5.056;2023-06-14T04:52:57;101521.91;;;21.24;42.15
49813;BME280;35706;52.100;5.056;2023-06-14T04:53:59;101524.19;;;21.27;42.54
49813;BME280;35706;52.100;5.056;2023-06-14T04:55:01;101530.59;;;21.26;42.40
49813;BME280;35706;52.100;5.056;2023-06-14T04:56:01;101528.09;;;21.24;42.21
49813;BME280;35706;52.100;5.056;2023-06-14T04:57:04;101529.81;;;21.32;42.05
49813;BME280;35706;52.100;5.056;2023-06-14T04:58:05;101526.31;;;21.31;41.99
49813;BME280;35706;52.100;5.056;2023-06-14T04:59:06;101531.34;;;21.41;42.15
49813;BME280;35706;52.100;5.056;2023-06-14T05:00:06;101528.56;;;21.49;41.68
49813;BME280;35706;52.100;5.056;2023-06-14T05:01:07;101528.59;;;21.34;41.83
49813;BME280;35706;52.100;5.056;2023-06-14T05:02:10;101533.56;;;21.38;42.05
49813;BME280;35706;52.100;5.056;2023-06-14T05:03:11;101531.47;;;21.33;42.05
49813;BME280;35706;52.100;5.056;2023-06-14T05:04:14;101532.19;;;21.42;41.77
49813;BME280;35706;52.100;5.056;2023-06-14T05:05:15;101529.59;;;21.33;42.16
49813;BME280;35706;52.100;5.056;2023-06-14T05:06:15;101529.25;;;21.37;42.03
49813;BME280;35706;52.100;5.056;2023-06-14T05:07:17;101533.50;;;21.31;42.01
49813;BME280;35706;52.100;5.056;2023-06-14T05:08:18;101532.63;;;21.24;42.14
49813;BME280;35706;52.100;5.056;2023-06-14T05:09:18;101535.88;;;21.19;42.24
49813;BME280;35706;52.100;5.056;2023-06-14T05:10:18;101530.50;;;20.98;42.61
49813;BME280;35706;52.100;5.056;2023-06-14T05:11:19;101538.13;;;21.01;43.05
49813;BME280;35706;52.100;5.056;2023-06-14T05:12:19;101535.00;;;20.82;42.82
49813;BME280;35706;52.100;5.056;2023-06-14T05:13:20;101536.47;;;21.00;43.11
49813;BME280;35706;52.100;5.056;2023-06-14T05:14:23;101535.44;;;21.01;42.65
49813;BME280;35706;52.100;5.056;2023-06-14T05:15:23;101535.16;;;21.10;42.75
49813;BME280;35706;52.100;5.056;2023-06-14T05:16:25;101537.25;;;21.15;42.91
49813;BME280;35706;52.100;5.056;2023-06-14T05:17:27;101534.75;;;21.13;42.63
49813;BME280;35706;52.100;5.056;2023-06-14T05:18:28;101536.75;;;21.26;42.25
49813;BME280;35706;52.100;5.056;2023-06-14T05:19:28;101546.44;;;21.27;42.03
49813;BME280;35706;52.100;5.056;2023-06-14T05:20:28;101543.50;;;21.22;42.22
49813;BME280;35706;52.100;5.056;2023-06-14T05:21:29;101541.28;;;21.26;41.88
49813;BME280;35706;52.100;5.056;2023-06-14T05:22:29;101542.16;;;21.11;42.67
49813;BME280;35706;52.100;5.056;2023-06-14T05:23:30;101538.47;;;21.12;42.37